sensor_id;sensor_type;location;lat;lon;timestamp;P1;durP1;ratioP1;P2;durP2;ratioP2
19030;SDS011;9648;51.130;13.978;2023-04-30T00:00:18;18.55;;;14.25;;
19030;SDS011;9648;51.130;13.978;2023-04-30T00:02:45;18.50;;;13.75;;
19030;SDS011;9648;51.130;13.978;2023-04-30T00:05:12;19.73;;;14.47;;
19030;SDS011;9648;51.130;13.978;2023-04-30T00:07:39;18.70;;;14.52;;
19030;SDS011;9648;51.130;13.978;2023-04-30T00:10:07;19.33;;;13.15;;
19030;SDS011;9648;51.130;13.978;2023-04-30T00:12:36;17.30;;;12.73;;
19030;SDS011;9648;51.130;13.978;2023-04-30T00:15:03;18.23;;;13.10;;
19030;SDS011;9648;51.130;13.978;2023-04-30T00:17:31;17.00;;;12.88;;
19030;SDS011;9648;51.130;13.978;2023-04-30T00:19:58;15.40;;;12.57;;
19030;SDS011;9648;51.130;13.978;2023-04-30T00:22:25;19.25;;;13.88;;
19030;SDS011;9648;51.130;13.978;2023-04-30T00:24:52;15.68;;;13.50;;
19030;SDS011;9648;51.130;13.978;2023-04-30T00:27:18;18.33;;;13.10;;
19030;SDS011;9648;51.130;13.978;2023-04-30T00:29:47;16.60;;;13.13;;
19030;SDS011;9648;51.130;13.978;2023-04-30T00:32:14;18.35;;;13.07;;
19030;SDS011;9648;51.130;13.978;2023-04-30T00:34:41;15.97;;;12.43;;
19030;SDS011;9648;51.130;13.978;2023-04-30T00:37:07;17.13;;;12.73;;
19030;SDS011;9648;51.130;13.978;2023-04-30T00:39:34;18.70;;;14.18;;
19030;SDS011;9648;51.130;13.978;2023-04-30T00:42:01;18.40;;;13.35;;
19030;SDS011;9648;51.130;13.978;2023-04-30T00:44:28;15.00;;;12.73;;
19030;SDS011;9648;51.130;13.978;2023-04-30T00:46:56;17.75;;;13.82;;
19030;SDS011;9648;51.130;13.978;2023-04-30T00:49:23;18.50;;;13.60;;
19030;SDS011;9648;51.130;13.978;2023-04-30T00:51:50;17.03;;;12.40;;
19030;SDS011;9648;51.130;13.978;2023-04-30T00:54:18;18.08;;;13.25;;
19030;SDS011;9648;51.130;13.978;2023-04-30T00:56:46;16.13;;;13.15;;
19030;SDS011;9648;51.130;13.978;2023-04-30T00:59:13;16.58;;;13.05;;
19030;SDS011;9648;51.130;13.978;2023-04-30T01:01:40;16.65;;;13.05;;
19030;SDS011;9648;51.130;13.978;2023-04-30T01:04:09;16.52;;;12.88;;
19030;SDS011;9648;51.130;13.978;2023-04-30T01:06:36;16.77;;;13.45;;
19030;SDS011;9648;51.130;13.978;2023-04-30T01:09:03;19.67;;;14.07;;
19030;SDS011;9648;51.130;13.978;2023-04-30T01:11:33;17.97;;;13.67;;
19030;SDS011;9648;51.130;13.978;2023-04-30T01:14:11;18.42;;;13.18;;
19030;SDS011;9648;51.130;13.978;2023-04-30T01:16:46;17.67;;;12.80;;
19030;SDS011;9648;51.130;13.978;2023-04-30T01:19:26;19.45;;;12.68;;
19030;SDS011;9648;51.130;13.978;2023-04-30T01:22:00;15.73;;;12.70;;
19030;SDS011;9648;51.130;13.978;2023-04-30T01:27:30;17.10;;;12.40;;
19030;SDS011;9648;51.130;13.978;2023-04-30T01:30:06;20.08;;;12.63;;
19030;SDS011;9648;51.130;13.978;2023-04-30T01:32:34;16.05;;;11.93;;
19030;SDS011;9648;51.130;13.978;2023-04-30T01:35:01;14.53;;;11.13;;
19030;SDS011;9648;51.130;13.978;2023-04-30T01:37:30;14.57;;;11.40;;
19030;SDS011;9648;51.130;13.978;2023-04-30T01:40:13;17.60;;;12.35;;
19030;SDS011;9648;51.130;13.978;2023-04-30T01:42:51;15.70;;;11.05;;
19030;SDS011;9648;51.130;13.978;2023-04-30T01:45:27;14.02;;;10.57;;
19030;SDS011;9648;51.130;13.978;2023-04-30T01:48:15;15.52;;;9.93;;
19030;SDS011;9648;51.130;13.978;2023-04-30T01:50:50;13.38;;;9.50;;
19030;SDS011;9648;51.130;13.978;2023-04-30T01:53:22;13.07;;;8.98;;
19030;SDS011;9648;51.130;13.978;2023-04-30T01:55:56;13.32;;;9.27;;
19030;SDS011;9648;51.130;13.978;2023-04-30T01:58:26;14.95;;;8.82;;
19030;SDS011;9648;51.130;13.978;2023-04-30T02:00:56;9.98;;;7.90;;
19030;SDS011;9648;51.130;13.978;2023-04-30T02:03:23;12.80;;;8.52;;
19030;SDS011;9648;51.130;13.978;2023-04-30T02:05:50;10.68;;;8.02;;
19030;SDS011;9648;51.130;13.978;2023-04-30T02:08:16;12.77;;;8.75;;
19030;SDS011;9648;51.130;13.978;2023-04-30T02:10:43;12.90;;;8.97;;
19030;SDS011;9648;51.130;13.978;2023-04-30T02:13:10;13.40;;;9.73;;
19030;SDS011;9648;51.130;13.978;2023-04-30T02:15:37;13.70;;;9.80;;
19030;SDS011;9648;51.130;13.978;2023-04-30T02:18:05;14.30;;;9.95;;
19030;SDS011;9648;51.130;13.978;2023-04-30T02:20:32;14.45;;;10.52;;
19030;SDS011;9648;51.130;13.978;2023-04-30T02:22:58;17.40;;;11.90;;
19030;SDS011;9648;51.130;13.978;2023-04-30T02:25:25;14.35;;;10.07;;
19030;SDS011;9648;51.130;13.978;2023-04-30T02:27:52;12.68;;;9.90;;
19030;SDS011;9648;51.130;13.978;2023-04-30T02:30:19;11.63;;;9.13;;
19030;SDS011;9648;51.130;13.978;2023-04-30T02:32:46;12.52;;;8.93;;
19030;SDS011;9648;51.130;13.978;2023-04-30T02:35:14;12.02;;;8.77;;
19030;SDS011;9648;51.130;13.978;2023-04-30T02:37:41;12.60;;;8.63;;
19030;SDS011;9648;51.130;13.978;2023-04-30T02:40:08;12.10;;;8.77;;
19030;SDS011;9648;51.130;13.978;2023-04-30T02:42:36;11.75;;;8.85;;
19030;SDS011;9648;51.130;13.978;2023-04-30T02:45:03;11.95;;;8.65;;
19030;SDS011;9648;51.130;13.978;2023-04-30T02:47:30;12.63;;;8.30;;
19030;SDS011;9648;51.130;13.978;2023-04-30T02:49:57;12.18;;;8.15;;
19030;SDS011;9648;51.130;13.978;2023-04-30T02:52:25;11.93;;;7.90;;
19030;SDS011;9648;51.130;13.978;2023-04-30T02:54:52;9.57;;;7.45;;
19030;SDS011;9648;51.130;13.978;2023-04-30T02:57:19;9.02;;;7.07;;
19030;SDS011;9648;51.130;13.978;2023-04-30T02:59:46;10.43;;;7.43;;
19030;SDS011;9648;51.130;13.978;2023-04-30T03:02:13;11.10;;;7.25;;
19030;SDS011;9648;51.130;13.978;2023-04-30T03:04:40;9.82;;;6.90;;
19030;SDS011;9648;51.130;13.978;2023-04-30T03:07:07;9.93;;;7.10;;
19030;SDS011;9648;51.130;13.978;2023-04-30T03:09:36;11.05;;;6.72;;
19030;SDS011;9648;51.130;13.978;2023-04-30T03:12:03;12.30;;;6.80;;
19030;SDS011;9648;51.130;13.978;2023-04-30T03:14:30;9.88;;;6.65;;
19030;SDS011;9648;51.130;13.978;2023-04-30T03:16:56;10.10;;;6.60;;
19030;SDS011;9648;51.130;13.978;2023-04-30T03:19:23;8.13;;;6.13;;
19030;SDS011;9648;51.130;13.978;2023-04-30T03:21:50;9.45;;;6.60;;
19030;SDS011;9648;51.130;13.978;2023-04-30T03:24:17;9.35;;;6.65;;
19030;SDS011;9648;51.130;13.978;2023-04-30T03:26:45;11.27;;;6.65;;
19030;SDS011;9648;51.130;13.978;2023-04-30T03:29:12;7.93;;;5.93;;
19030;SDS011;9648;51.130;13.978;2023-04-30T03:31:39;8.80;;;6.10;;
19030;SDS011;9648;51.130;13.978;2023-04-30T03:34:06;8.77;;;6.20;;
19030;SDS011;9648;51.130;13.978;2023-04-30T03:36:32;8.30;;;6.63;;
19030;SDS011;9648;51.130;13.978;2023-04-30T03:39:00;10.02;;;7.03;;
19030;SDS011;9648;51.130;13.978;2023-04-30T03:41:28;9.63;;;7.17;;
19030;SDS011;9648;51.130;13.978;2023-04-30T03:43:56;9.40;;;6.90;;
19030;SDS011;9648;51.130;13.978;2023-04-30T03:46:22;8.95;;;6.68;;
19030;SDS011;9648;51.130;13.978;2023-04-30T03:48:50;10.63;;;7.70;;
19030;SDS011;9648;51.130;13.978;2023-04-30T03:51:17;12.13;;;8.40;;
19030;SDS011;9648;51.130;13.978;2023-04-30T03:53:45;8.95;;;7.43;;
19030;SDS011;9648;51.130;13.978;2023-04-30T03:56:12;13.65;;;8.60;;
19030;SDS011;9648;51.130;13.978;2023-04-30T03:58:40;13.57;;;8.98;;
19030;SDS011;9648;51.130;13.978;2023-04-30T04:01:08;13.23;;;9.23;;
19030;SDS011;9648;51.130;13.978;2023-04-30T04:03:35;13.13;;;8.50;;
19030;SDS011;9648;51.130;13.978;2023-04-30T04:06:02;11.75;;;8.57;;
19030;SDS011;9648;51.130;13.978;2023-04-30T04:08:29;11.90;;;9.00;;
19030;SDS011;9648;51.130;13.978;2023-04-30T04:10:56;12.27;;;9.20;;
19030;SDS011;9648;51.130;13.978;2023-04-30T04:13:23;14.05;;;9.02;;
19030;SDS011;9648;51.130;13.978;2023-04-30T04:15:50;12.85;;;8.52;;
19030;SDS011;9648;51.130;13.978;2023-04-30T04:18:18;10.35;;;8.27;;
19030;SDS011;9648;51.130;13.978;2023-04-30T04:20:45;12.23;;;8.75;;
19030;SDS011;9648;51.130;13.978;2023-04-30T04:23:12;12.50;;;8.57;;
19030;SDS011;9648;51.130;13.978;2023-04-30T04:25:38;12.20;;;8.48;;
19030;SDS011;9648;51.130;13.978;2023-04-30T04:28:05;11.20;;;8.20;;
19030;SDS011;9648;51.130;13.978;2023-04-30T04:30:32;12.57;;;8.40;;
19030;SDS011;9648;51.130;13.978;2023-04-30T04:33:00;12.25;;;8.73;;
19030;SDS011;9648;51.130;13.978;2023-04-30T04:35:28;12.45;;;8.38;;
19030;SDS011;9648;51.130;13.978;2023-04-30T04:37:55;13.52;;;8.45;;
19030;SDS011;9648;51.130;13.978;2023-04-30T04:40:23;11.70;;;8.20;;
19030;SDS011;9648;51.130;13.978;2023-04-30T04:42:50;10.77;;;8.07;;
19030;SDS011;9648;51.130;13.978;2023-04-30T04:45:17;11.05;;;8.20;;
19030;SDS011;9648;51.130;13.978;2023-04-30T04:47:48;10.27;;;7.88;;
19030;SDS011;9648;51.130;13.978;2023-04-30T04:50:15;11.20;;;8.05;;
19030;SDS011;9648;51.130;13.978;2023-04-30T04:52:43;12.00;;;8.97;;
19030;SDS011;9648;51.130;13.978;2023-04-30T04:55:10;13.15;;;9.40;;
19030;SDS011;9648;51.130;13.978;2023-04-30T04:57:37;10.52;;;8.43;;
19030;SDS011;9648;51.130;13.978;2023-04-30T05:00:05;13.27;;;9.07;;
19030;SDS011;9648;51.130;13.978;2023-04-30T05:02:34;10.85;;;8.02;;
19030;SDS011;9648;51.130;13.978;2023-04-30T05:05:01;13.60;;;8.43;;
19030;SDS011;9648;51.130;13.978;2023-04-30T05:07:28;12.43;;;8.38;;
19030;SDS011;9648;51.130;13.978;2023-04-30T05:09:56;11.25;;;8.45;;
19030;SDS011;9648;51.130;13.978;2023-04-30T05:12:23;10.88;;;8.18;;
19030;SDS011;9648;51.130;13.978;2023-04-30T05:14:49;11.68;;;7.97;;
19030;SDS011;9648;51.130;13.978;2023-04-30T05:17:16;12.13;;;7.30;;
19030;SDS011;9648;51.130;13.978;2023-04-30T05:19:43;12.02;;;7.57;;
19030;SDS011;9648;51.130;13.978;2023-04-30T05:22:11;10.82;;;7.30;;
19030;SDS011;9648;51.130;13.978;2023-04-30T05:24:38;10.25;;;7.30;;
19030;SDS011;9648;51.130;13.978;2023-04-30T05:27:06;9.93;;;7.00;;
19030;SDS011;9648;51.130;13.978;2023-04-30T05:29:33;10.47;;;7.07;;
19030;SDS011;9648;51.130;13.978;2023-04-30T05:32:00;9.85;;;6.90;;
19030;SDS011;9648;51.130;13.978;2023-04-30T05:34:27;12.57;;;7.20;;
19030;SDS011;9648;51.130;13.978;2023-04-30T05:36:54;9.55;;;7.05;;
19030;SDS011;9648;51.130;13.978;2023-04-30T05:39:20;10.70;;;7.13;;
19030;SDS011;9648;51.130;13.978;2023-04-30T05:41:47;9.85;;;6.70;;
19030;SDS011;9648;51.130;13.978;2023-04-30T05:44:16;9.00;;;6.22;;
19030;SDS011;9648;51.130;13.978;2023-04-30T05:46:42;8.85;;;6.32;;
19030;SDS011;9648;51.130;13.978;2023-04-30T05:49:09;14.02;;;6.75;;
19030;SDS011;9648;51.130;13.978;2023-04-30T05:51:36;7.97;;;5.65;;
19030;SDS011;9648;51.130;13.978;2023-04-30T05:54:03;11.02;;;6.20;;
19030;SDS011;9648;51.130;13.978;2023-04-30T05:56:30;9.35;;;6.13;;
19030;SDS011;9648;51.130;13.978;2023-04-30T05:58:56;7.80;;;5.47;;
19030;SDS011;9648;51.130;13.978;2023-04-30T06:01:25;10.32;;;6.00;;
19030;SDS011;9648;51.130;13.978;2023-04-30T06:03:52;9.50;;;6.60;;
19030;SDS011;9648;51.130;13.978;2023-04-30T06:06:19;12.07;;;6.57;;
19030;SDS011;9648;51.130;13.978;2023-04-30T06:08:46;9.77;;;5.90;;
19030;SDS011;9648;51.130;13.978;2023-04-30T06:11:13;10.40;;;6.88;;
19030;SDS011;9648;51.130;13.978;2023-04-30T06:13:40;9.05;;;6.45;;
19030;SDS011;9648;51.130;13.978;2023-04-30T06:16:07;9.15;;;5.90;;
19030;SDS011;9648;51.130;13.978;2023-04-30T06:18:35;9.00;;;5.82;;
19030;SDS011;9648;51.130;13.978;2023-04-30T06:21:02;8.20;;;5.85;;
19030;SDS011;9648;51.130;13.978;2023-04-30T06:23:29;9.52;;;5.82;;
19030;SDS011;9648;51.130;13.978;2023-04-30T06:25:56;8.35;;;5.63;;
19030;SDS011;9648;51.130;13.978;2023-04-30T06:28:23;8.05;;;5.85;;
19030;SDS011;9648;51.130;13.978;2023-04-30T06:30:50;10.18;;;5.60;;
19030;SDS011;9648;51.130;13.978;2023-04-30T06:33:18;10.10;;;5.60;;
19030;SDS011;9648;51.130;13.978;2023-04-30T06:35:46;7.95;;;5.72;;
19030;SDS011;9648;51.130;13.978;2023-04-30T06:38:15;8.95;;;4.97;;
19030;SDS011;9648;51.130;13.978;2023-04-30T06:40:43;7.93;;;5.25;;
19030;SDS011;9648;51.130;13.978;2023-04-30T06:43:10;7.07;;;4.90;;
19030;SDS011;9648;51.130;13.978;2023-04-30T06:45:37;7.97;;;5.20;;
19030;SDS011;9648;51.130;13.978;2023-04-30T06:48:04;8.98;;;5.07;;
19030;SDS011;9648;51.130;13.978;2023-04-30T06:50:32;9.10;;;4.80;;
19030;SDS011;9648;51.130;13.978;2023-04-30T06:53:00;9.40;;;5.00;;
19030;SDS011;9648;51.130;13.978;2023-04-30T06:55:29;8.63;;;4.70;;
19030;SDS011;9648;51.130;13.978;2023-04-30T06:57:56;7.93;;;4.68;;
19030;SDS011;9648;51.130;13.978;2023-04-30T07:00:26;8.68;;;4.35;;
19030;SDS011;9648;51.130;13.978;2023-04-30T07:02:53;7.75;;;4.45;;
19030;SDS011;9648;51.130;13.978;2023-04-30T07:05:21;6.53;;;4.25;;
19030;SDS011;9648;51.130;13.978;2023-04-30T07:07:48;8.38;;;4.30;;
19030;SDS011;9648;51.130;13.978;2023-04-30T07:10:16;10.93;;;4.80;;
19030;SDS011;9648;51.130;13.978;2023-04-30T07:12:43;7.28;;;4.20;;
19030;SDS011;9648;51.130;13.978;2023-04-30T07:15:12;6.88;;;4.05;;
19030;SDS011;9648;51.130;13.978;2023-04-30T07:17:39;8.18;;;4.00;;
19030;SDS011;9648;51.130;13.978;2023-04-30T07:20:07;6.13;;;4.10;;
19030;SDS011;9648;51.130;13.978;2023-04-30T07:22:34;7.60;;;4.28;;
19030;SDS011;9648;51.130;13.978;2023-04-30T07:25:01;7.95;;;4.40;;
19030;SDS011;9648;51.130;13.978;2023-04-30T07:27:29;6.37;;;4.20;;
19030;SDS011;9648;51.130;13.978;2023-04-30T07:29:56;9.23;;;4.20;;
19030;SDS011;9648;51.130;13.978;2023-04-30T07:32:23;8.48;;;3.95;;
19030;SDS011;9648;51.130;13.978;2023-04-30T07:34:51;10.27;;;3.80;;
19030;SDS011;9648;51.130;13.978;2023-04-30T07:37:18;8.25;;;3.60;;
19030;SDS011;9648;51.130;13.978;2023-04-30T07:39:46;6.80;;;3.55;;
19030;SDS011;9648;51.130;13.978;2023-04-30T07:42:13;8.55;;;4.10;;
19030;SDS011;9648;51.130;13.978;2023-04-30T07:44:41;8.05;;;3.63;;
19030;SDS011;9648;51.130;13.978;2023-04-30T07:47:07;6.40;;;3.90;;
19030;SDS011;9648;51.130;13.978;2023-04-30T07:49:34;10.57;;;3.53;;
19030;SDS011;9648;51.130;13.978;2023-04-30T07:52:01;7.53;;;3.20;;
19030;SDS011;9648;51.130;13.978;2023-04-30T07:54:28;8.17;;;3.40;;
19030;SDS011;9648;51.130;13.978;2023-04-30T07:56:55;7.47;;;3.70;;
19030;SDS011;9648;51.130;13.978;2023-04-30T07:59:22;5.28;;;3.15;;
19030;SDS011;9648;51.130;13.978;2023-04-30T08:01:50;8.38;;;3.50;;
19030;SDS011;9648;51.130;13.978;2023-04-30T08:04:20;9.32;;;3.85;;
19030;SDS011;9648;51.130;13.978;2023-04-30T08:06:47;7.70;;;3.50;;
19030;SDS011;9648;51.130;13.978;2023-04-30T08:09:13;12.13;;;3.70;;
19030;SDS011;9648;51.130;13.978;2023-04-30T08:11:40;9.13;;;3.60;;
19030;SDS011;9648;51.130;13.978;2023-04-30T08:14:07;6.65;;;3.22;;
19030;SDS011;9648;51.130;13.978;2023-04-30T08:16:34;8.68;;;3.88;;
19030;SDS011;9648;51.130;13.978;2023-04-30T08:19:02;8.50;;;3.95;;
19030;SDS011;9648;51.130;13.978;2023-04-30T08:21:29;7.22;;;3.65;;
19030;SDS011;9648;51.130;13.978;2023-04-30T08:23:56;8.20;;;3.72;;
19030;SDS011;9648;51.130;13.978;2023-04-30T08:26:24;9.68;;;3.70;;
19030;SDS011;9648;51.130;13.978;2023-04-30T08:28:51;6.55;;;3.90;;
19030;SDS011;9648;51.130;13.978;2023-04-30T08:31:17;6.97;;;3.30;;
19030;SDS011;9648;51.130;13.978;2023-04-30T08:33:44;7.45;;;3.70;;
19030;SDS011;9648;51.130;13.978;2023-04-30T08:36:13;5.88;;;3.30;;
19030;SDS011;9648;51.130;13.978;2023-04-30T08:38:39;8.03;;;3.73;;
19030;SDS011;9648;51.130;13.978;2023-04-30T08:41:08;9.88;;;3.20;;
19030;SDS011;9648;51.130;13.978;2023-04-30T08:43:36;8.55;;;3.53;;
19030;SDS011;9648;51.130;13.978;2023-04-30T08:46:04;9.35;;;3.88;;
19030;SDS011;9648;51.130;13.978;2023-04-30T08:48:31;7.07;;;3.65;;
19030;SDS011;9648;51.130;13.978;2023-04-30T08:50:58;7.63;;;3.50;;
19030;SDS011;9648;51.130;13.978;2023-04-30T08:53:27;6.90;;;3.42;;
19030;SDS011;9648;51.130;13.978;2023-04-30T08:55:55;6.15;;;3.35;;
19030;SDS011;9648;51.130;13.978;2023-04-30T08:58:22;9.43;;;3.23;;
19030;SDS011;9648;51.130;13.978;2023-04-30T09:00:49;8.15;;;3.60;;
19030;SDS011;9648;51.130;13.978;2023-04-30T09:03:16;6.30;;;3.20;;
19030;SDS011;9648;51.130;13.978;2023-04-30T09:05:43;6.53;;;3.30;;
19030;SDS011;9648;51.130;13.978;2023-04-30T09:08:11;7.28;;;3.33;;
19030;SDS011;9648;51.130;13.978;2023-04-30T09:10:44;6.78;;;3.63;;
19030;SDS011;9648;51.130;13.978;2023-04-30T09:13:11;8.40;;;3.63;;
19030;SDS011;9648;51.130;13.978;2023-04-30T09:15:38;6.53;;;3.27;;
19030;SDS011;9648;51.130;13.978;2023-04-30T09:18:10;6.77;;;3.37;;
19030;SDS011;9648;51.130;13.978;2023-04-30T09:20:52;5.88;;;3.05;;
19030;SDS011;9648;51.130;13.978;2023-04-30T09:23:20;6.30;;;3.00;;
19030;SDS011;9648;51.130;13.978;2023-04-30T09:25:49;5.80;;;3.13;;
19030;SDS011;9648;51.130;13.978;2023-04-30T09:28:16;7.80;;;3.30;;
19030;SDS011;9648;51.130;13.978;2023-04-30T09:30:48;6.43;;;3.08;;
19030;SDS011;9648;51.130;13.978;2023-04-30T09:33:15;6.82;;;3.08;;
19030;SDS011;9648;51.130;13.978;2023-04-30T09:35:42;6.05;;;3.05;;
19030;SDS011;9648;51.130;13.978;2023-04-30T09:38:24;4.82;;;2.80;;
19030;SDS011;9648;51.130;13.978;2023-04-30T09:40:53;6.40;;;2.90;;
19030;SDS011;9648;51.130;13.978;2023-04-30T09:43:22;8.10;;;3.10;;
19030;SDS011;9648;51.130;13.978;2023-04-30T09:45:49;7.78;;;3.03;;
19030;SDS011;9648;51.130;13.978;2023-04-30T09:48:17;6.80;;;3.00;;
19030;SDS011;9648;51.130;13.978;2023-04-30T09:50:47;7.20;;;3.08;;
19030;SDS011;9648;51.130;13.978;2023-04-30T09:53:14;5.35;;;2.80;;
19030;SDS011;9648;51.130;13.978;2023-04-30T09:55:42;9.13;;;2.90;;
19030;SDS011;9648;51.130;13.978;2023-04-30T09:58:12;8.68;;;3.00;;
19030;SDS011;9648;51.130;13.978;2023-04-30T10:00:40;7.13;;;2.70;;
19030;SDS011;9648;51.130;13.978;2023-04-30T10:03:08;7.97;;;2.60;;
19030;SDS011;9648;51.130;13.978;2023-04-30T10:05:36;9.02;;;3.30;;
19030;SDS011;9648;51.130;13.978;2023-04-30T10:08:08;8.10;;;3.20;;
19030;SDS011;9648;51.130;13.978;2023-04-30T10:10:39;7.57;;;3.30;;
19030;SDS011;9648;51.130;13.978;2023-04-30T10:13:13;7.55;;;2.80;;
19030;SDS011;9648;51.130;13.978;2023-04-30T10:15:42;7.07;;;2.60;;
19030;SDS011;9648;51.130;13.978;2023-04-30T10:18:17;8.25;;;2.50;;
19030;SDS011;9648;51.130;13.978;2023-04-30T10:20:47;6.22;;;2.55;;
19030;SDS011;9648;51.130;13.978;2023-04-30T10:23:15;5.22;;;2.53;;
19030;SDS011;9648;51.130;13.978;2023-04-30T10:25:42;6.78;;;2.60;;
19030;SDS011;9648;51.130;13.978;2023-04-30T10:28:11;6.30;;;2.53;;
19030;SDS011;9648;51.130;13.978;2023-04-30T10:30:39;7.38;;;2.90;;
19030;SDS011;9648;51.130;13.978;2023-04-30T10:33:09;6.30;;;2.97;;
19030;SDS011;9648;51.130;13.978;2023-04-30T10:35:45;5.30;;;2.40;;
19030;SDS011;9648;51.130;13.978;2023-04-30T10:38:17;6.20;;;2.60;;
19030;SDS011;9648;51.130;13.978;2023-04-30T10:40:47;6.78;;;2.58;;
19030;SDS011;9648;51.130;13.978;2023-04-30T10:43:17;7.25;;;2.42;;
19030;SDS011;9648;51.130;13.978;2023-04-30T10:45:46;7.28;;;2.47;;
19030;SDS011;9648;51.130;13.978;2023-04-30T10:48:15;6.68;;;2.55;;
19030;SDS011;9648;51.130;13.978;2023-04-30T10:50:49;6.10;;;2.42;;
19030;SDS011;9648;51.130;13.978;2023-04-30T10:53:17;5.15;;;2.17;;
19030;SDS011;9648;51.130;13.978;2023-04-30T10:55:45;5.28;;;2.35;;
19030;SDS011;9648;51.130;13.978;2023-04-30T10:58:23;6.43;;;2.40;;
19030;SDS011;9648;51.130;13.978;2023-04-30T11:00:58;7.70;;;2.67;;
19030;SDS011;9648;51.130;13.978;2023-04-30T11:03:29;6.45;;;2.50;;
19030;SDS011;9648;51.130;13.978;2023-04-30T11:05:57;4.00;;;2.20;;
19030;SDS011;9648;51.130;13.978;2023-04-30T11:08:31;6.00;;;2.33;;
19030;SDS011;9648;51.130;13.978;2023-04-30T11:11:02;4.15;;;1.83;;
19030;SDS011;9648;51.130;13.978;2023-04-30T11:13:39;4.93;;;2.65;;
19030;SDS011;9648;51.130;13.978;2023-04-30T11:16:07;6.07;;;2.47;;
19030;SDS011;9648;51.130;13.978;2023-04-30T11:18:34;7.30;;;2.63;;
19030;SDS011;9648;51.130;13.978;2023-04-30T11:21:08;4.78;;;2.30;;
19030;SDS011;9648;51.130;13.978;2023-04-30T11:23:35;5.20;;;2.20;;
19030;SDS011;9648;51.130;13.978;2023-04-30T11:26:06;4.85;;;2.22;;
19030;SDS011;9648;51.130;13.978;2023-04-30T11:28:33;5.43;;;2.10;;
19030;SDS011;9648;51.130;13.978;2023-04-30T11:31:03;6.75;;;2.75;;
19030;SDS011;9648;51.130;13.978;2023-04-30T11:33:30;7.15;;;2.67;;
19030;SDS011;9648;51.130;13.978;2023-04-30T11:35:59;5.80;;;2.67;;
19030;SDS011;9648;51.130;13.978;2023-04-30T11:38:27;5.30;;;2.30;;
19030;SDS011;9648;51.130;13.978;2023-04-30T11:40:55;5.70;;;2.50;;
19030;SDS011;9648;51.130;13.978;2023-04-30T11:43:22;5.43;;;2.35;;
19030;SDS011;9648;51.130;13.978;2023-04-30T11:46:00;7.72;;;2.20;;
19030;SDS011;9648;51.130;13.978;2023-04-30T11:48:30;6.13;;;2.78;;
19030;SDS011;9648;51.130;13.978;2023-04-30T11:50:59;6.65;;;3.25;;
19030;SDS011;9648;51.130;13.978;2023-04-30T11:53:28;6.07;;;2.30;;
19030;SDS011;9648;51.130;13.978;2023-04-30T11:55:55;5.45;;;2.20;;
19030;SDS011;9648;51.130;13.978;2023-04-30T11:58:22;5.90;;;2.00;;
19030;SDS011;9648;51.130;13.978;2023-04-30T12:00:49;6.30;;;2.30;;
19030;SDS011;9648;51.130;13.978;2023-04-30T12:03:18;5.40;;;1.98;;
19030;SDS011;9648;51.130;13.978;2023-04-30T12:05:45;4.57;;;2.13;;
19030;SDS011;9648;51.130;13.978;2023-04-30T12:08:17;6.25;;;2.38;;
19030;SDS011;9648;51.130;13.978;2023-04-30T12:10:44;5.37;;;2.03;;
19030;SDS011;9648;51.130;13.978;2023-04-30T12:13:12;5.18;;;2.13;;
19030;SDS011;9648;51.130;13.978;2023-04-30T12:15:40;4.03;;;2.10;;
19030;SDS011;9648;51.130;13.978;2023-04-30T12:18:09;5.22;;;2.17;;
19030;SDS011;9648;51.130;13.978;2023-04-30T12:20:39;4.07;;;1.88;;
19030;SDS011;9648;51.130;13.978;2023-04-30T12:23:06;5.60;;;1.95;;
19030;SDS011;9648;51.130;13.978;2023-04-30T12:25:38;5.85;;;2.20;;
19030;SDS011;9648;51.130;13.978;2023-04-30T12:28:07;7.15;;;2.00;;
19030;SDS011;9648;51.130;13.978;2023-04-30T12:30:35;8.10;;;2.40;;
19030;SDS011;9648;51.130;13.978;2023-04-30T12:33:01;3.60;;;1.73;;
19030;SDS011;9648;51.130;13.978;2023-04-30T12:35:30;6.03;;;2.00;;
19030;SDS011;9648;51.130;13.978;2023-04-30T12:38:01;5.85;;;2.00;;
19030;SDS011;9648;51.130;13.978;2023-04-30T12:40:29;4.27;;;1.80;;
19030;SDS011;9648;51.130;13.978;2023-04-30T12:43:00;4.23;;;2.07;;
19030;SDS011;9648;51.130;13.978;2023-04-30T12:45:46;4.15;;;1.70;;
19030;SDS011;9648;51.130;13.978;2023-04-30T12:48:16;5.20;;;1.77;;
19030;SDS011;9648;51.130;13.978;2023-04-30T12:50:47;4.00;;;1.90;;
19030;SDS011;9648;51.130;13.978;2023-04-30T12:53:17;6.23;;;1.90;;
19030;SDS011;9648;51.130;13.978;2023-04-30T12:58:33;5.35;;;1.88;;
19030;SDS011;9648;51.130;13.978;2023-04-30T13:01:00;6.90;;;1.97;;
19030;SDS011;9648;51.130;13.978;2023-04-30T13:03:26;6.47;;;2.20;;
19030;SDS011;9648;51.130;13.978;2023-04-30T13:05:53;5.38;;;1.88;;
19030;SDS011;9648;51.130;13.978;2023-04-30T13:08:23;4.13;;;1.98;;
19030;SDS011;9648;51.130;13.978;2023-04-30T13:10:50;5.45;;;1.80;;
19030;SDS011;9648;51.130;13.978;2023-04-30T13:13:17;4.50;;;1.98;;
19030;SDS011;9648;51.130;13.978;2023-04-30T13:15:48;4.00;;;1.70;;
19030;SDS011;9648;51.130;13.978;2023-04-30T13:18:15;5.07;;;1.83;;
19030;SDS011;9648;51.130;13.978;2023-04-30T13:20:42;5.07;;;2.05;;
19030;SDS011;9648;51.130;13.978;2023-04-30T13:23:09;3.78;;;1.70;;
19030;SDS011;9648;51.130;13.978;2023-04-30T13:25:37;6.10;;;1.95;;
19030;SDS011;9648;51.130;13.978;2023-04-30T13:28:05;6.65;;;1.83;;
19030;SDS011;9648;51.130;13.978;2023-04-30T13:30:32;5.03;;;1.80;;
19030;SDS011;9648;51.130;13.978;2023-04-30T13:33:00;4.63;;;1.60;;
19030;SDS011;9648;51.130;13.978;2023-04-30T13:35:27;4.28;;;1.75;;
19030;SDS011;9648;51.130;13.978;2023-04-30T13:37:54;3.33;;;1.40;;
19030;SDS011;9648;51.130;13.978;2023-04-30T13:40:21;4.15;;;1.52;;
19030;SDS011;9648;51.130;13.978;2023-04-30T13:42:50;4.70;;;1.92;;
19030;SDS011;9648;51.130;13.978;2023-04-30T13:45:17;4.40;;;1.80;;
19030;SDS011;9648;51.130;13.978;2023-04-30T13:47:44;3.20;;;1.40;;
19030;SDS011;9648;51.130;13.978;2023-04-30T13:50:11;3.63;;;1.40;;
19030;SDS011;9648;51.130;13.978;2023-04-30T13:52:38;3.80;;;1.50;;
19030;SDS011;9648;51.130;13.978;2023-04-30T13:55:05;4.60;;;1.60;;
19030;SDS011;9648;51.130;13.978;2023-04-30T13:57:33;4.15;;;1.60;;
19030;SDS011;9648;51.130;13.978;2023-04-30T14:00:01;4.65;;;1.98;;
19030;SDS011;9648;51.130;13.978;2023-04-30T14:02:29;3.25;;;1.63;;
19030;SDS011;9648;51.130;13.978;2023-04-30T14:04:56;4.00;;;1.77;;
19030;SDS011;9648;51.130;13.978;2023-04-30T14:07:23;4.10;;;1.40;;
19030;SDS011;9648;51.130;13.978;2023-04-30T14:09:50;3.53;;;1.65;;
19030;SDS011;9648;51.130;13.978;2023-04-30T14:12:17;5.80;;;1.80;;
19030;SDS011;9648;51.130;13.978;2023-04-30T14:14:45;5.00;;;1.60;;
19030;SDS011;9648;51.130;13.978;2023-04-30T14:17:13;2.88;;;1.40;;
19030;SDS011;9648;51.130;13.978;2023-04-30T14:19:40;4.82;;;1.50;;
19030;SDS011;9648;51.130;13.978;2023-04-30T14:22:07;3.87;;;1.43;;
19030;SDS011;9648;51.130;13.978;2023-04-30T14:24:34;5.57;;;1.73;;
19030;SDS011;9648;51.130;13.978;2023-04-30T14:27:01;5.28;;;1.70;;
19030;SDS011;9648;51.130;13.978;2023-04-30T14:29:32;3.78;;;1.50;;
19030;SDS011;9648;51.130;13.978;2023-04-30T14:31:58;3.90;;;1.60;;
19030;SDS011;9648;51.130;13.978;2023-04-30T14:34:27;3.38;;;1.52;;
19030;SDS011;9648;51.130;13.978;2023-04-30T14:36:54;4.22;;;1.50;;
19030;SDS011;9648;51.130;13.978;2023-04-30T14:39:23;4.43;;;1.55;;
19030;SDS011;9648;51.130;13.978;2023-04-30T14:41:50;3.72;;;1.42;;
19030;SDS011;9648;51.130;13.978;2023-04-30T14:44:16;3.53;;;1.48;;
19030;SDS011;9648;51.130;13.978;2023-04-30T14:46:43;4.15;;;1.40;;
19030;SDS011;9648;51.130;13.978;2023-04-30T14:49:10;3.45;;;1.75;;
19030;SDS011;9648;51.130;13.978;2023-04-30T14:51:38;9.82;;;2.00;;